Aviation Digital Data Service (ADDS)

Output produced by METARs form (0731 UTC 19 February 2019)
found at http://www.aviationweather.gov/metar/data/
 
Forecast for: GOBD (DAKAR/DIAGNE , SN)
Text: TAF GOBD 190530Z 1906/2012 36017KT 8000 NSC
Forecast period: 0600 UTC 19 February 2019 to 1200 UTC 20 February 2019
Forecast type: FROM: standard forecast or significant change
Winds: from the N (360 degrees) at 20 MPH (17 knots; 8.7 m/s)
Visibility: 5 miles (8 km)
Ceiling: unknown
Clouds: missing
Weather: no significant weather forecast for this period